Time;durP1;ratioP1;P1;durP2;ratioP2;P2;SDS_P1;SDS_P2;PMS_P1;PMS_P2;Temp;Humidity;BMP_temperature;BMP_pressure;BME280_temperature;BME280_humidity;BME280_pressure;Samples;Min_cycle;Max_cycle;Signal;HPM_P1;HPM_P2
2023/03/01 00:01:41;;;;;;;11.90;7.10;;;;;;;4.88;52.63;101741.52;107805;1290;22047;-66
2023/03/01 00:04:09;;;;;;;10.30;7.10;;;;;;;4.80;52.59;101740.02;107824;1290;22030;-62
2023/03/01 00:06:35;;;;;;;9.40;6.50;;;;;;;4.73;52.59;101737.38;107874;1290;22066;-65
2023/03/01 00:09:01;;;;;;;10.40;6.30;;;;;;;4.65;52.71;101734.16;107190;1290;1003187;-62
2023/03/01 00:11:28;;;;;;;9.60;5.90;;;;;;;4.61;52.72;101726.73;107877;1290;21989;-65
2023/03/01 00:13:56;;;;;;;11.00;6.40;;;;;;;4.59;52.98;101719.53;108005;1290;21996;-61
2023/03/01 00:16:26;;;;;;;9.30;6.30;;;;;;;4.59;53.00;101714.83;107862;1290;21988;-65
2023/03/01 00:18:57;;;;;;;9.60;6.50;;;;;;;4.58;52.90;101707.70;107898;1290;22015;-63
2023/03/01 00:21:23;;;;;;;11.40;7.30;;;;;;;4.56;53.35;101707.09;107880;1290;22493;-66
2023/03/01 00:23:50;;;;;;;11.00;7.50;;;;;;;4.51;53.22;101710.05;107153;1291;1003015;-61
2023/03/01 00:26:16;;;;;;;10.80;7.00;;;;;;;4.48;53.44;101709.59;107810;1291;22072;-65
2023/03/01 00:28:42;;;;;;;11.00;6.50;;;;;;;4.47;53.49;101709.39;107787;1291;21984;-61
2023/03/01 00:31:16;;;;;;;9.20;5.80;;;;;;;4.47;53.77;101709.55;107813;1291;22013;-66
2023/03/01 00:33:45;;;;;;;10.50;7.20;;;;;;;4.47;54.08;101707.66;108091;1290;22045;-66
2023/03/01 00:36:13;;;;;;;11.50;7.60;;;;;;;4.48;53.90;101708.18;107886;1290;22015;-62
2023/03/01 00:38:42;;;;;;;11.30;7.20;;;;;;;4.49;54.09;101702.66;107930;1290;21995;-62
2023/03/01 00:41:11;;;;;;;10.40;6.80;;;;;;;4.47;54.01;101697.39;107880;1290;23045;-62
2023/03/01 00:43:38;;;;;;;7.90;5.20;;;;;;;4.46;53.94;101692.49;107946;1290;23722;-61
2023/03/01 00:46:06;;;;;;;10.20;7.00;;;;;;;4.50;54.08;101689.13;107990;1290;22017;-66
2023/03/01 00:48:32;;;;;;;10.70;7.10;;;;;;;4.49;54.22;101687.90;107229;1290;1002873;-62
2023/03/01 00:51:07;;;;;;;11.00;7.40;;;;;;;4.46;53.99;101685.17;107963;1284;22284;-66
2023/03/01 00:53:33;;;;;;;10.40;6.60;;;;;;;4.41;54.02;101683.66;107829;1291;22117;-62
2023/03/01 00:55:59;;;;;;;11.40;7.10;;;;;;;4.38;54.21;101680.42;107807;1290;21999;-65
2023/03/01 00:58:25;;;;;;;10.00;6.30;;;;;;;4.37;54.20;101681.95;107774;1291;22000;-62
2023/03/01 01:00:52;;;;;;;10.10;7.00;;;;;;;4.36;54.11;101685.39;107024;1290;1002626;-65
2023/03/01 01:03:19;;;;;;;12.30;7.40;;;;;;;4.34;54.22;101682.02;107865;1290;21986;-61
2023/03/01 01:05:45;;;;;;;10.90;6.90;;;;;;;4.30;54.25;101679.81;107147;1290;1002184;-66
2023/03/01 01:08:11;;;;;;;10.30;7.30;;;;;;;4.28;54.09;101678.86;107857;1290;21992;-66
2023/03/01 01:10:37;;;;;;;9.40;6.60;;;;;;;4.24;54.06;101680.46;107918;1290;23101;-62
2023/03/01 01:13:04;;;;;;;10.60;6.80;;;;;;;4.24;54.10;101676.95;107864;1287;22000;-61
2023/03/01 01:15:33;;;;;;;11.10;7.00;;;;;;;4.25;54.15;101673.71;107878;1283;21986;-65
2023/03/01 01:17:59;;;;;;;11.80;6.80;;;;;;;4.25;54.19;101671.81;107906;1290;22047;-65
2023/03/01 01:20:25;;;;;;;11.10;7.30;;;;;;;4.21;54.05;101671.29;107847;1290;21994;-61
2023/03/01 01:22:51;;;;;;;13.40;7.60;;;;;;;4.14;54.20;101670.23;107883;1290;22081;-66
2023/03/01 01:25:17;;;;;;;12.90;7.50;;;;;;;4.09;53.82;101668.83;107114;1290;1002377;-66
2023/03/01 01:27:43;;;;;;;12.50;7.30;;;;;;;4.06;54.08;101668.02;107885;1290;22309;-62
2023/03/01 01:30:09;;;;;;;12.50;7.80;;;;;;;4.05;54.05;101661.54;107906;1290;21979;-65
2023/03/01 01:32:36;;;;;;;10.30;6.60;;;;;;;4.03;54.05;101653.50;107961;1290;21974;-66
2023/03/01 01:35:03;;;;;;;11.60;7.30;;;;;;;4.03;54.11;101651.05;107897;1290;21962;-62
2023/03/01 01:37:33;;;;;;;11.90;7.70;;;;;;;4.03;53.84;101651.24;107974;1290;22446;-65
2023/03/01 01:39:59;;;;;;;12.50;8.40;;;;;;;4.04;53.76;101649.54;107913;1290;22451;-62
2023/03/01 01:42:25;;;;;;;13.60;8.50;;;;;;;4.04;54.01;101643.29;107168;1283;1003205;-61
2023/03/01 01:45:23;;;;;;;14.70;9.80;;;;;;;4.02;53.97;101636.61;107133;1290;1002355;-61
2023/03/01 01:47:50;;;;;;;16.00;9.20;;;;;;;3.97;54.05;101634.38;107874;1290;22000;-64
2023/03/01 01:50:16;;;;;;;15.50;9.70;;;;;;;3.93;53.88;101631.63;107139;1290;1004194;-62
2023/03/01 01:52:42;;;;;;;13.30;9.40;;;;;;;3.91;53.74;101632.58;107872;1290;22024;-60
2023/03/01 01:55:14;;;;;;;14.50;8.40;;;;;;;3.90;54.16;101633.95;107873;1290;21982;-60
2023/03/01 01:57:43;;;;;;;14.10;8.90;;;;;;;3.93;53.95;101635.08;107898;1290;22030;-61
2023/03/01 02:00:14;;;;;;;13.50;8.40;;;;;;;3.93;53.94;101632.16;107184;1290;1002931;-60
2023/03/01 02:02:42;;;;;;;13.30;8.10;;;;;;;3.91;53.85;101628.60;107901;1290;21992;-64
2023/03/01 02:05:19;;;;;;;15.70;9.00;;;;;;;3.88;53.72;101626.23;107146;1290;1003184;-64
2023/03/01 02:07:45;;;;;;;13.00;8.40;;;;;;;3.89;53.69;101617.41;107961;1290;22056;-61
2023/03/01 02:10:11;;;;;;;11.20;7.30;;;;;;;3.93;53.83;101615.47;107831;1290;22098;-60
2023/03/01 02:12:37;;;;;;;9.70;6.60;;;;;;;3.96;53.89;101611.77;107887;1290;21982;-62
2023/03/01 02:15:03;;;;;;;10.70;6.90;;;;;;;3.99;53.87;101610.81;107792;1290;21983;-61
2023/03/01 02:17:33;;;;;;;10.50;7.20;;;;;;;4.01;53.75;101601.14;107863;1290;23753;-61
2023/03/01 02:20:17;;;;;;;11.90;7.00;;;;;;;4.01;53.51;101600.11;107842;1290;21984;-64
2023/03/01 02:22:43;;;;;;;12.30;7.10;;;;;;;3.98;53.41;101596.38;107888;1290;22029;-61
2023/03/01 02:25:25;;;;;;;11.60;7.00;;;;;;;3.96;53.56;101598.91;107764;1290;21984;-64
2023/03/01 02:27:58;;;;;;;9.30;6.80;;;;;;;3.93;53.46;101594.44;107958;1290;22045;-64
2023/03/01 02:30:24;;;;;;;14.30;6.80;;;;;;;3.89;53.66;101599.70;107832;1289;21999;-63
2023/03/01 02:32:50;;;;;;;12.10;7.80;;;;;;;3.87;53.70;101600.18;107867;1290;21998;-65
2023/03/01 02:35:17;;;;;;;11.60;7.20;;;;;;;3.89;53.93;101600.58;107915;1290;22019;-61
2023/03/01 02:37:43;;;;;;;12.70;7.40;;;;;;;3.86;53.86;101600.13;107963;1290;22033;-64
2023/03/01 02:40:15;;;;;;;13.90;8.00;;;;;;;3.86;53.95;101600.29;107859;1290;21993;-64
2023/03/01 02:42:47;;;;;;;12.30;7.10;;;;;;;3.87;54.00;101599.13;107868;1290;21987;-60
2023/03/01 02:45:13;;;;;;;10.30;6.50;;;;;;;3.91;53.83;101596.45;107914;1290;22000;-64
2023/03/01 02:47:39;;;;;;;13.40;8.10;;;;;;;3.93;53.83;101589.92;107961;1290;21989;-61
2023/03/01 02:50:14;;;;;;;11.50;6.90;;;;;;;3.93;53.68;101583.34;107591;1289;309869;-61
2023/03/01 02:52:46;;;;;;;12.90;6.40;;;;;;;3.92;53.44;101579.83;107883;1290;21995;-61
2023/03/01 02:55:17;;;;;;;11.70;7.10;;;;;;;3.92;53.53;101581.89;107837;1290;21989;-60
2023/03/01 02:57:45;;;;;;;12.40;6.90;;;;;;;3.92;53.54;101580.69;107088;1290;1002478;-64
2023/03/01 03:00:19;;;;;;;11.80;7.30;;;;;;;3.91;53.48;101586.91;107864;1290;21990;-62
2023/03/01 03:02:51;;;;;;;11.20;6.80;;;;;;;3.91;53.65;101590.22;107132;1290;1002292;-64
2023/03/01 03:05:18;;;;;;;10.30;6.80;;;;;;;3.93;53.49;101591.16;107950;1290;21992;-59
2023/03/01 03:07:47;;;;;;;10.70;6.90;;;;;;;3.95;53.55;101583.94;107094;1290;1007216;-63
2023/03/01 03:10:15;;;;;;;14.40;7.50;;;;;;;3.97;53.41;101579.30;107889;1290;21993;-60
2023/03/01 03:12:41;;;;;;;11.70;6.70;;;;;;;3.96;53.04;101586.38;107855;1290;21984;-59
2023/03/01 03:15:09;;;;;;;11.20;6.50;;;;;;;3.94;53.25;101586.50;107816;1283;21996;-62
2023/03/01 03:17:39;;;;;;;11.90;6.60;;;;;;;3.94;53.51;101576.95;107908;1286;21990;-64
2023/03/01 03:20:05;;;;;;;10.00;6.50;;;;;;;3.94;53.31;101577.46;107948;1290;21992;-59
2023/03/01 03:22:33;;;;;;;12.90;6.70;;;;;;;3.93;53.27;101574.99;107870;1290;21989;-60
2023/03/01 03:24:59;;;;;;;11.90;7.30;;;;;;;3.88;53.16;101573.27;108059;1289;23089;-66
2023/03/01 03:27:25;;;;;;;13.30;7.10;;;;;;;3.79;53.03;101571.40;107103;1290;1002915;-61
2023/03/01 03:29:54;;;;;;;14.20;7.10;;;;;;;3.75;53.03;101565.70;107971;1290;21996;-60
2023/03/01 03:32:40;;;;;;;11.50;7.10;;;;;;;3.72;53.09;101564.23;107894;1290;22742;-60
2023/03/01 03:35:09;;;;;;;10.20;7.10;;;;;;;3.68;53.00;101567.04;107879;1290;22200;-64
2023/03/01 03:40:22;;;;;;;11.50;6.50;;;;;;;3.71;52.94;101571.64;107821;1290;22059;-64
2023/03/01 03:42:48;;;;;;;12.60;7.90;;;;;;;3.69;53.05;101577.30;107844;1290;21986;-64
2023/03/01 03:45:15;;;;;;;15.40;7.60;;;;;;;3.65;53.23;101578.72;107062;1290;1002400;-60
2023/03/01 03:47:42;;;;;;;11.20;7.50;;;;;;;3.63;53.29;101579.54;107823;1276;22024;-60
2023/03/01 03:50:10;;;;;;;13.70;8.00;;;;;;;3.64;53.33;101578.16;107806;1290;23609;-60
2023/03/01 03:52:37;;;;;;;15.70;7.40;;;;;;;3.63;53.33;101571.87;107889;1290;23715;-61
2023/03/01 03:55:09;;;;;;;12.10;7.50;;;;;;;3.65;53.45;101566.23;107919;1287;21998;-61
2023/03/01 03:57:38;;;;;;;14.10;8.00;;;;;;;3.68;53.65;101568.42;107788;1290;23059;-63
2023/03/01 04:00:05;;;;;;;12.20;7.30;;;;;;;3.69;53.45;101569.48;107726;1286;21989;-61
2023/03/01 04:02:31;;;;;;;12.80;6.80;;;;;;;3.67;53.27;101567.52;107853;1289;22072;-64
2023/03/01 04:04:56;;;;;;;12.40;6.70;;;;;;;3.62;53.39;101560.90;107799;1290;21999;-63
2023/03/01 04:07:22;;;;;;;13.20;8.20;;;;;;;3.60;53.39;101561.54;107840;1290;21987;-61
2023/03/01 04:09:49;;;;;;;12.70;7.90;;;;;;;3.61;53.45;101566.08;107839;1290;21993;-64
2023/03/01 04:12:20;;;;;;;12.60;7.90;;;;;;;3.56;53.72;101566.27;107068;1290;1003174;-64
2023/03/01 04:14:46;;;;;;;13.40;8.40;;;;;;;3.50;53.75;101566.77;107794;1290;22005;-61
2023/03/01 04:17:12;;;;;;;15.60;9.20;;;;;;;3.47;53.76;101562.48;107807;1290;21997;-64
2023/03/01 04:19:38;;;;;;;12.50;7.90;;;;;;;3.47;53.95;101563.67;107885;1287;22149;-60
2023/03/01 04:22:09;;;;;;;15.50;9.10;;;;;;;3.44;54.09;101558.55;107800;1290;22080;-65
2023/03/01 04:24:35;;;;;;;14.40;7.40;;;;;;;3.50;54.11;101558.60;107776;1290;21989;-60
2023/03/01 04:27:02;;;;;;;13.10;8.00;;;;;;;3.52;54.04;101557.11;107810;1290;21999;-65
2023/03/01 04:29:28;;;;;;;15.90;8.90;;;;;;;3.53;54.27;101558.54;107856;1290;21986;-62
2023/03/01 04:31:54;;;;;;;13.70;8.00;;;;;;;3.56;54.07;101557.39;107850;1290;21986;-61
2023/03/01 04:34:20;;;;;;;15.10;9.60;;;;;;;3.60;54.08;101559.62;107780;1290;22063;-64
2023/03/01 04:36:46;;;;;;;12.30;7.20;;;;;;;3.61;54.21;101562.45;107797;1290;21989;-64
2023/03/01 04:39:12;;;;;;;15.20;8.30;;;;;;;3.61;53.95;101558.29;107752;1290;22457;-60
2023/03/01 04:41:43;;;;;;;15.10;8.10;;;;;;;3.62;53.89;101555.53;107932;1290;23199;-65
2023/03/01 04:44:09;;;;;;;13.90;8.00;;;;;;;3.61;54.39;101557.08;107885;1290;21988;-66
2023/03/01 04:46:35;;;;;;;13.20;7.80;;;;;;;3.59;54.28;101560.99;107794;1290;22007;-60
2023/03/01 04:49:02;;;;;;;13.20;7.60;;;;;;;3.63;54.16;101557.83;107055;1290;1002262;-64
2023/03/01 04:51:28;;;;;;;17.00;7.70;;;;;;;3.57;53.98;101563.17;107807;1285;21979;-65
2023/03/01 04:54:00;;;;;;;14.30;8.50;;;;;;;3.50;54.02;101569.00;107940;1290;21997;-61
2023/03/01 04:56:26;;;;;;;15.40;8.20;;;;;;;3.48;54.63;101565.98;107959;1290;22102;-61
2023/03/01 04:58:53;;;;;;;15.50;8.90;;;;;;;3.47;54.56;101566.13;107913;1290;21991;-61
2023/03/01 05:01:19;;;;;;;18.70;9.10;;;;;;;3.48;54.57;101572.75;107926;1290;22025;-61
2023/03/01 05:03:50;;;;;;;13.70;8.50;;;;;;;3.50;54.66;101574.40;107885;1290;21999;-64
2023/03/01 05:06:16;;;;;;;;;;;;;;;3.52;54.58;101574.63;107203;1290;1003190;-62
2023/03/01 05:08:43;;;;;;;15.20;8.20;;;;;;;3.52;54.60;101572.90;107969;1290;22339;-61
2023/03/01 05:11:14;;;;;;;14.70;8.00;;;;;;;3.55;54.69;101576.62;107955;1290;22006;-64
2023/03/01 05:13:40;;;;;;;16.20;8.40;;;;;;;3.55;54.69;101575.06;107945;1290;22021;-63
2023/03/01 05:16:06;;;;;;;14.30;8.60;;;;;;;3.59;54.77;101577.12;108019;1290;21982;-64
2023/03/01 05:18:33;;;;;;;12.80;7.60;;;;;;;3.65;55.28;101577.70;108018;1290;21991;-61
2023/03/01 05:21:04;;;;;;;13.90;8.10;;;;;;;3.70;55.72;101577.70;107252;1290;1003187;-65
2023/03/01 05:23:32;;;;;;;14.80;8.30;;;;;;;3.70;55.94;101577.16;107109;1290;1003228;-65
2023/03/01 05:25:59;;;;;;;14.20;7.40;;;;;;;3.75;55.58;101571.95;107836;1290;21984;-62
2023/03/01 05:28:25;;;;;;;14.20;8.10;;;;;;;3.77;55.95;101567.86;107881;1290;22127;-65
2023/03/01 05:30:51;;;;;;;13.30;8.20;;;;;;;3.77;56.49;101565.08;107961;1290;21987;-62
2023/03/01 05:33:18;;;;;;;12.90;8.40;;;;;;;3.80;56.79;101568.13;107946;1290;21987;-61
2023/03/01 05:35:44;;;;;;;14.40;8.40;;;;;;;3.87;56.85;101574.98;107993;1290;21993;-63
2023/03/01 05:38:14;;;;;;;12.20;8.10;;;;;;;3.94;56.95;101570.36;107958;1290;22062;-61
2023/03/01 05:40:45;;;;;;;14.50;9.50;;;;;;;4.06;56.97;101572.48;107803;1291;21988;-61
2023/03/01 05:43:12;;;;;;;15.40;9.80;;;;;;;4.16;56.96;101572.99;107967;1291;21983;-60
2023/03/01 05:45:38;;;;;;;15.40;9.10;;;;;;;4.24;56.90;101572.40;107856;1291;22111;-65
2023/03/01 05:48:05;;;;;;;16.30;9.40;;;;;;;4.34;56.90;101573.39;107923;1290;22010;-65
2023/03/01 05:50:36;;;;;;;16.00;9.00;;;;;;;4.46;56.92;101574.45;107957;1288;21985;-64
2023/03/01 05:53:05;;;;;;;15.70;9.10;;;;;;;4.55;56.98;101574.59;107868;1290;22029;-65
2023/03/01 05:55:31;;;;;;;11.80;7.90;;;;;;;4.64;57.19;101571.23;107869;1290;23767;-65
2023/03/01 05:57:58;;;;;;;14.50;8.00;;;;;;;4.73;57.31;101564.20;107939;1278;22028;-61
2023/03/01 06:00:24;;;;;;;12.80;8.70;;;;;;;4.82;57.31;101556.30;107873;1290;21994;-62
2023/03/01 06:02:51;;;;;;;15.70;10.00;;;;;;;4.90;57.29;101555.14;107837;1290;22043;-62
2023/03/01 06:05:17;;;;;;;14.00;8.80;;;;;;;5.03;57.33;101553.08;107805;1290;21985;-61
2023/03/01 06:07:43;;;;;;;14.00;9.30;;;;;;;5.07;57.63;101551.45;107032;1290;1002833;-65
2023/03/01 06:10:11;;;;;;;15.80;9.40;;;;;;;5.17;57.82;101558.89;107833;1286;23740;-67
2023/03/01 06:12:37;;;;;;;18.50;9.30;;;;;;;5.27;57.78;101564.56;107939;1290;21985;-61
2023/03/01 06:15:05;;;;;;;14.50;8.50;;;;;;;5.37;58.03;101569.19;107931;1290;23650;-65
2023/03/01 06:17:33;;;;;;;16.80;9.80;;;;;;;5.52;58.54;101571.86;107184;1289;1002510;-61
2023/03/01 06:19:58;;;;;;;18.00;9.80;;;;;;;5.64;58.28;101565.23;107911;1288;22024;-61
2023/03/01 06:22:25;;;;;;;13.90;8.90;;;;;;;5.73;58.40;101565.29;107775;1287;21989;-62
2023/03/01 06:24:52;;;;;;;12.80;8.70;;;;;;;5.81;59.06;101565.83;107752;1286;21991;-65
2023/03/01 06:27:18;;;;;;;16.10;10.30;;;;;;;5.79;59.38;101564.58;107793;1290;21985;-62
2023/03/01 06:29:44;;;;;;;14.40;9.00;;;;;;;5.85;59.20;101561.08;106999;1290;1002375;-66
2023/03/01 06:32:10;;;;;;;16.20;8.40;;;;;;;5.92;59.21;101554.83;107810;1290;22004;-62
2023/03/01 06:34:37;;;;;;;13.30;9.10;;;;;;;6.05;58.99;101553.77;107790;1290;21987;-62
2023/03/01 06:37:04;;;;;;;14.30;8.90;;;;;;;6.12;59.32;101556.21;107907;1290;21989;-66
2023/03/01 06:39:32;;;;;;;14.70;9.60;;;;;;;6.12;59.06;101555.86;107895;1290;21987;-66
2023/03/01 06:41:57;;;;;;;14.10;8.80;;;;;;;6.29;58.77;101552.61;107884;1280;21985;-65
2023/03/01 06:44:23;;;;;;;13.20;8.50;;;;;;;6.48;58.52;101546.25;107891;1287;21984;-66
2023/03/01 06:46:49;;;;;;;14.70;9.80;;;;;;;6.50;58.28;101541.08;107901;1286;22031;-64
2023/03/01 06:49:16;;;;;;;16.00;9.30;;;;;;;6.67;58.07;101539.89;107782;1290;22072;-63
2023/03/01 06:51:42;;;;;;;12.40;8.60;;;;;;;6.85;58.05;101535.92;107816;1290;21994;-64
2023/03/01 06:54:08;;;;;;;14.60;9.10;;;;;;;6.95;57.96;101531.58;107861;1290;21986;-66
2023/03/01 06:56:34;;;;;;;17.30;9.10;;;;;;;7.01;57.51;101523.52;107857;1290;22027;-67
2023/03/01 06:59:00;;;;;;;15.80;9.30;;;;;;;7.16;57.43;101516.14;107828;1283;22050;-67
2023/03/01 07:01:26;;;;;;;14.80;8.70;;;;;;;7.29;57.42;101506.61;107790;1290;22219;-67
2023/03/01 07:03:52;;;;;;;14.80;9.80;;;;;;;7.40;57.47;101503.69;107810;1290;21986;-67
2023/03/01 07:06:17;;;;;;;14.40;9.30;;;;;;;7.50;56.89;101498.80;107805;1290;21987;-67
2023/03/01 07:08:43;;;;;;;16.00;9.40;;;;;;;7.46;56.40;101496.30;107784;1290;21983;-67
2023/03/01 07:11:09;;;;;;;12.50;8.40;;;;;;;7.56;56.19;101498.21;107101;1290;1002369;-67
2023/03/01 07:13:35;;;;;;;14.40;10.10;;;;;;;7.67;56.12;101493.52;107821;1279;21995;-67
2023/03/01 07:16:02;;;;;;;11.70;8.30;;;;;;;7.87;55.96;101497.17;107847;1290;21989;-68
2023/03/01 07:18:28;;;;;;;14.20;9.30;;;;;;;7.94;55.46;101499.56;107795;1290;22008;-68
2023/03/01 07:21:04;;;;;;;13.90;9.20;;;;;;;7.97;55.59;101495.77;107792;1290;21985;-67
2023/03/01 07:23:30;;;;;;;14.70;9.50;;;;;;;7.99;55.33;101491.42;107846;1282;21982;-67
2023/03/01 07:25:56;;;;;;;15.10;9.70;;;;;;;8.11;55.89;101486.19;107794;1290;21989;-67
2023/03/01 07:28:24;;;;;;;17.50;10.30;;;;;;;8.21;55.42;101486.52;107781;1290;21997;-67
2023/03/01 07:30:50;;;;;;;14.70;9.20;;;;;;;8.37;54.99;101484.14;107848;1290;21987;-67
2023/03/01 07:33:16;;;;;;;16.40;9.30;;;;;;;8.47;54.82;101482.01;107813;1290;21992;-68
2023/03/01 07:35:42;;;;;;;13.60;9.60;;;;;;;8.54;54.56;101479.16;107895;1290;22000;-67
2023/03/01 07:38:09;;;;;;;15.70;9.40;;;;;;;8.53;53.33;101479.84;107781;1290;22028;-67
2023/03/01 07:40:35;;;;;;;14.30;8.40;;;;;;;8.70;53.42;101474.99;107819;1290;21989;-67
2023/03/01 07:43:01;;;;;;;13.30;8.50;;;;;;;8.84;52.66;101467.83;107851;1290;21997;-67
2023/03/01 07:45:43;;;;;;;13.50;8.50;;;;;;;9.03;52.26;101469.45;107823;1286;21994;-67
2023/03/01 07:48:10;;;;;;;13.60;8.90;;;;;;;9.17;51.56;101468.37;107848;1283;21990;-68
2023/03/01 07:50:37;;;;;;;13.50;8.60;;;;;;;9.25;51.52;101472.49;107790;1290;21991;-67
2023/03/01 07:53:04;;;;;;;14.30;9.40;;;;;;;9.36;51.17;101469.09;107873;1290;21993;-67
2023/03/01 07:55:30;;;;;;;12.20;8.50;;;;;;;9.52;51.07;101464.16;107852;1290;23647;-64
2023/03/01 07:57:56;;;;;;;12.80;8.40;;;;;;;9.64;51.09;101461.66;107818;1290;21994;-66
2023/03/01 08:00:22;;;;;;;14.10;8.80;;;;;;;9.83;51.76;101462.86;107827;1290;21987;-68
2023/03/01 08:02:47;;;;;;;12.10;8.60;;;;;;;10.00;51.15;101461.77;107842;1277;23804;-67
2023/03/01 08:05:22;;;;;;;13.00;9.10;;;;;;;10.10;50.42;101460.97;107819;1290;21984;-64
2023/03/01 08:07:48;;;;;;;13.80;8.40;;;;;;;10.30;51.02;101454.26;107913;1290;21996;-64
2023/03/01 08:10:14;;;;;;;12.30;8.30;;;;;;;10.19;49.18;101455.59;107767;1290;23521;-67
2023/03/01 08:12:39;;;;;;;13.30;9.00;;;;;;;10.34;49.47;101453.06;107776;1290;22721;-66
2023/03/01 08:15:06;;;;;;;15.30;8.20;;;;;;;10.35;47.78;101451.66;107774;1290;21989;-67
2023/03/01 08:17:37;;;;;;;13.40;8.60;;;;;;;10.40;48.45;101452.58;107785;1290;21987;-63
2023/03/01 08:20:06;;;;;;;12.80;8.80;;;;;;;10.57;49.30;101448.46;107819;1290;21994;-63
2023/03/01 08:22:33;;;;;;;13.40;8.50;;;;;;;10.60;48.57;101448.65;107892;1290;21988;-67
2023/03/01 08:24:59;;;;;;;12.10;8.70;;;;;;;10.65;48.22;101444.11;107763;1290;21977;-67
2023/03/01 08:27:24;;;;;;;11.40;7.80;;;;;;;10.82;47.77;101441.02;107751;1290;21996;-65
2023/03/01 08:29:50;;;;;;;13.20;9.00;;;;;;;10.72;46.71;101438.88;107811;1290;21987;-68
2023/03/01 08:32:16;;;;;;;12.60;9.40;;;;;;;10.82;47.34;101434.17;107821;1290;21987;-66
2023/03/01 08:34:48;;;;;;;12.90;8.70;;;;;;;10.96;47.64;101434.58;107774;1287;22173;-64
2023/03/01 08:37:14;;;;;;;13.10;8.50;;;;;;;11.16;47.03;101430.05;107800;1290;22464;-63
2023/03/01 08:39:39;;;;;;;11.90;8.70;;;;;;;11.41;46.43;101429.21;107040;1290;1003026;-64
2023/03/01 08:42:05;;;;;;;12.80;9.00;;;;;;;11.45;44.78;101426.59;107034;1290;1002616;-64
2023/03/01 08:44:31;;;;;;;12.10;8.90;;;;;;;11.42;44.66;101423.95;107763;1290;21987;-67
2023/03/01 08:46:57;;;;;;;11.30;8.20;;;;;;;11.52;45.66;101415.51;107751;1290;22737;-64
2023/03/01 08:49:24;;;;;;;12.90;8.90;;;;;;;11.60;45.78;101409.37;107845;1290;21987;-64
2023/03/01 08:51:50;;;;;;;13.00;9.50;;;;;;;11.83;45.28;101402.86;107808;1290;21997;-64
2023/03/01 08:54:18;;;;;;;14.00;9.10;;;;;;;12.06;45.36;101396.34;107871;1290;22074;-63
2023/03/01 08:56:49;;;;;;;14.70;9.50;;;;;;;12.10;44.40;101393.15;107750;1283;21994;-63
2023/03/01 08:59:15;;;;;;;13.40;8.50;;;;;;;12.26;45.21;101384.50;107913;1290;22247;-63
2023/03/01 09:01:43;;;;;;;11.00;7.80;;;;;;;12.29;44.03;101382.54;107829;1290;22038;-66
2023/03/01 09:04:09;;;;;;;11.90;8.20;;;;;;;12.36;44.11;101377.95;107796;1290;21990;-66
2023/03/01 09:06:35;;;;;;;12.80;8.50;;;;;;;12.46;43.47;101371.23;107828;1290;22149;-67
2023/03/01 09:09:01;;;;;;;9.60;7.50;;;;;;;12.54;42.92;101372.60;106994;1290;1002224;-67
2023/03/01 09:11:27;;;;;;;11.40;8.10;;;;;;;12.56;42.34;101370.81;107867;1290;22031;-67
2023/03/01 09:13:55;;;;;;;13.70;8.90;;;;;;;12.64;42.29;101370.79;107836;1290;22025;-65
2023/03/01 09:16:22;;;;;;;12.50;9.10;;;;;;;12.83;42.96;101366.98;107764;1290;21979;-64
2023/03/01 09:18:51;;;;;;;12.30;8.60;;;;;;;13.08;43.21;101367.52;107874;1290;22000;-65
2023/03/01 09:21:18;;;;;;;13.30;8.50;;;;;;;13.23;42.57;101368.13;107874;1290;22002;-66
2023/03/01 09:23:45;;;;;;;11.10;7.90;;;;;;;13.38;42.22;101369.09;107943;1290;21989;-67
2023/03/01 09:26:19;;;;;;;11.30;8.20;;;;;;;13.60;42.47;101371.74;107896;1286;21982;-64
2023/03/01 09:28:46;;;;;;;11.30;7.70;;;;;;;13.69;40.85;101369.02;107841;1290;21989;-67
2023/03/01 09:31:12;;;;;;;12.90;8.80;;;;;;;13.70;41.26;101369.71;107761;1290;23167;-66
2023/03/01 09:33:42;;;;;;;11.30;7.70;;;;;;;13.69;41.37;101372.89;107872;1290;22258;-65
2023/03/01 09:36:11;;;;;;;11.40;7.50;;;;;;;13.55;40.83;101375.30;107912;1290;21989;-66
2023/03/01 09:38:39;;;;;;;9.60;6.90;;;;;;;13.49;40.70;101369.18;108211;1290;21999;-66
2023/03/01 09:41:47;;;;;;;10.40;7.60;;;;;;;13.62;41.21;101370.65;109230;1290;21994;-65
2023/03/01 09:44:30;;;;;;;12.30;9.00;;;;;;;13.86;40.31;101357.39;107089;1290;1002897;-66
2023/03/01 09:46:57;;;;;;;9.90;6.20;;;;;;;14.14;41.18;101355.31;107910;1290;23043;-66
2023/03/01 09:49:25;;;;;;;11.40;7.90;;;;;;;14.19;39.46;101347.66;107842;1290;21975;-67
2023/03/01 09:52:00;;;;;;;12.90;8.90;;;;;;;14.26;40.79;101347.23;107871;1290;22000;-66
2023/03/01 09:54:26;;;;;;;11.40;8.20;;;;;;;14.30;40.54;101346.48;107817;1290;21992;-65
2023/03/01 09:57:04;;;;;;;11.50;8.00;;;;;;;14.33;40.55;101340.61;107836;1290;21987;-65
2023/03/01 10:00:04;;;;;;;10.40;7.60;;;;;;;14.40;39.99;101334.15;107757;1290;21999;-67
2023/03/01 10:02:52;;;;;;;10.80;7.70;;;;;;;14.51;40.21;101331.20;107773;1279;22063;-65
2023/03/01 10:05:41;;;;;;;11.30;7.60;;;;;;;14.34;38.90;101329.84;107853;1290;22453;-66
2023/03/01 10:08:10;;;;;;;10.20;7.40;;;;;;;14.17;38.63;101322.27;107800;1290;21985;-66
2023/03/01 10:10:38;;;;;;;11.00;7.60;;;;;;;14.27;38.29;101321.63;107778;1290;21996;-66
2023/03/01 10:13:27;;;;;;;9.40;6.90;;;;;;;14.40;38.75;101322.34;107847;1290;21982;-67
2023/03/01 10:15:57;;;;;;;9.90;7.30;;;;;;;14.51;39.18;101323.79;107816;1290;21999;-67
2023/03/01 10:18:27;;;;;;;9.50;7.40;;;;;;;14.63;39.40;101319.20;107846;1290;21999;-66
2023/03/01 10:21:08;;;;;;;10.20;7.00;;;;;;;14.45;38.63;101315.20;107824;1279;23953;-66
2023/03/01 10:23:34;;;;;;;;;;;;;;;14.42;38.29;101304.46;107832;1290;22173;-66
2023/03/01 10:26:44;;;;;;;11.70;7.00;;;;;;;14.60;39.07;101296.10;107818;1290;21992;-67
2023/03/01 10:29:14;;;;;;;;;;;;;;;14.75;38.72;101290.98;107781;1290;23833;-66
2023/03/01 10:31:46;;;;;;;9.90;7.10;;;;;;;14.66;37.50;101292.33;107795;1286;22024;-67
2023/03/01 10:34:15;;;;;;;11.30;8.10;;;;;;;14.75;38.42;101289.20;107829;1290;21987;-67
2023/03/01 10:36:41;;;;;;;9.70;7.30;;;;;;;14.68;37.62;101285.22;107869;1290;22224;-66
2023/03/01 10:39:13;;;;;;;10.30;7.40;;;;;;;14.56;37.05;101284.16;107854;1290;21992;-66
2023/03/01 10:41:51;;;;;;;10.60;8.00;;;;;;;14.74;38.17;101280.38;107837;1290;21994;-63
2023/03/01 10:44:47;;;;;;;9.00;6.50;;;;;;;14.94;37.85;101277.42;107792;1290;22175;-63
2023/03/01 10:47:27;;;;;;;14.60;9.10;;;;;;;14.99;36.30;101275.05;107775;1290;21989;-66
2023/03/01 10:49:59;;;;;;;11.40;8.20;;;;;;;14.90;35.76;101276.08;107822;1290;21992;-65
2023/03/01 10:52:28;;;;;;;14.10;9.30;;;;;;;15.17;37.56;101272.27;107809;1290;21998;-63
2023/03/01 10:55:25;;;;;;;12.20;7.80;;;;;;;15.49;37.94;101262.89;107845;1290;21991;-65
2023/03/01 10:58:18;;;;;;;11.60;7.30;;;;;;;15.83;37.56;101257.45;107838;1290;23074;-66
2023/03/01 11:00:58;;;;;;;14.10;9.80;;;;;;;16.14;37.25;101254.17;107819;1290;21987;-64
2023/03/01 11:03:27;;;;;;;9.90;7.00;;;;;;;16.34;36.00;101250.91;107790;1291;22002;-66
2023/03/01 11:06:20;;;;;;;9.70;7.10;;;;;;;16.20;35.17;101253.15;107821;1290;21989;-66
2023/03/01 11:08:48;;;;;;;9.90;7.10;;;;;;;15.99;35.28;101251.84;107820;1290;22461;-67
2023/03/01 11:11:14;;;;;;;10.00;6.90;;;;;;;15.89;35.74;101255.05;107894;1290;21984;-64
2023/03/01 11:14:04;;;;;;;8.10;6.60;;;;;;;16.07;36.19;101254.86;107822;1290;21985;-66
2023/03/01 11:16:38;;;;;;;9.00;6.40;;;;;;;16.34;36.04;101251.98;107819;1290;21996;-64
2023/03/01 11:19:10;;;;;;;12.60;9.00;;;;;;;16.50;35.70;101237.80;107848;1290;21996;-65
2023/03/01 11:21:39;;;;;;;10.50;6.80;;;;;;;16.59;36.40;101235.97;107813;1290;21995;-64
2023/03/01 11:24:06;;;;;;;11.70;7.80;;;;;;;16.67;34.82;101232.42;107861;1290;22006;-64
2023/03/01 11:26:34;;;;;;;6.90;5.70;;;;;;;16.67;34.40;101226.05;107920;1290;22021;-66